sensor_id;sensor_type;location;lat;lon;timestamp;P1;durP1;ratioP1;P2;durP2;ratioP2
61905;SDS011;47863;55.766;37.672;2023-04-01T00:01:58;6.07;;;2.45;;
61905;SDS011;47863;55.766;37.672;2023-04-01T00:04:23;11.60;;;4.72;;
61905;SDS011;47863;55.766;37.672;2023-04-01T00:06:49;10.95;;;5.43;;
61905;SDS011;47863;55.766;37.672;2023-04-01T00:09:15;9.27;;;4.03;;
61905;SDS011;47863;55.766;37.672;2023-04-01T00:11:40;13.50;;;5.30;;
61905;SDS011;47863;55.766;37.672;2023-04-01T00:14:06;9.07;;;4.13;;
61905;SDS011;47863;55.766;37.672;2023-04-01T00:16:32;9.27;;;3.80;;
61905;SDS011;47863;55.766;37.672;2023-04-01T00:18:58;8.13;;;3.20;;
61905;SDS011;47863;55.766;37.672;2023-04-01T00:21:25;8.75;;;3.35;;
61905;SDS011;47863;55.766;37.672;2023-04-01T00:23:51;11.52;;;4.40;;
61905;SDS011;47863;55.766;37.672;2023-04-01T00:26:16;9.13;;;3.70;;
61905;SDS011;47863;55.766;37.672;2023-04-01T00:28:45;8.18;;;3.03;;
61905;SDS011;47863;55.766;37.672;2023-04-01T00:31:11;5.82;;;2.38;;
61905;SDS011;47863;55.766;37.672;2023-04-01T00:33:38;8.95;;;3.88;;
61905;SDS011;47863;55.766;37.672;2023-04-01T00:36:05;6.97;;;3.47;;
61905;SDS011;47863;55.766;37.672;2023-04-01T00:38:35;8.05;;;3.72;;
61905;SDS011;47863;55.766;37.672;2023-04-01T00:41:01;12.07;;;4.65;;
61905;SDS011;47863;55.766;37.672;2023-04-01T00:43:27;8.27;;;3.33;;
61905;SDS011;47863;55.766;37.672;2023-04-01T00:45:53;7.65;;;3.47;;
61905;SDS011;47863;55.766;37.672;2023-04-01T00:48:25;9.82;;;4.63;;
61905;SDS011;47863;55.766;37.672;2023-04-01T00:53:37;6.07;;;2.95;;
61905;SDS011;47863;55.766;37.672;2023-04-01T00:56:15;9.20;;;3.92;;
61905;SDS011;47863;55.766;37.672;2023-04-01T00:58:58;9.02;;;4.32;;
61905;SDS011;47863;55.766;37.672;2023-04-01T01:01:26;9.82;;;4.38;;
61905;SDS011;47863;55.766;37.672;2023-04-01T01:03:54;8.20;;;3.67;;
61905;SDS011;47863;55.766;37.672;2023-04-01T01:06:30;9.82;;;4.47;;
61905;SDS011;47863;55.766;37.672;2023-04-01T01:09:14;5.80;;;2.83;;
61905;SDS011;47863;55.766;37.672;2023-04-01T01:11:54;8.95;;;5.10;;
61905;SDS011;47863;55.766;37.672;2023-04-01T01:17:00;9.15;;;4.00;;
61905;SDS011;47863;55.766;37.672;2023-04-01T01:27:58;11.90;;;5.15;;
61905;SDS011;47863;55.766;37.672;2023-04-01T01:31:03;9.35;;;4.22;;
61905;SDS011;47863;55.766;37.672;2023-04-01T01:36:21;5.63;;;2.55;;
61905;SDS011;47863;55.766;37.672;2023-04-01T01:38:48;11.18;;;4.03;;
61905;SDS011;47863;55.766;37.672;2023-04-01T01:41:16;9.50;;;4.18;;
61905;SDS011;47863;55.766;37.672;2023-04-01T01:43:44;8.90;;;4.03;;
61905;SDS011;47863;55.766;37.672;2023-04-01T01:46:18;10.65;;;4.40;;
61905;SDS011;47863;55.766;37.672;2023-04-01T01:48:47;8.80;;;4.15;;
61905;SDS011;47863;55.766;37.672;2023-04-01T01:51:15;7.53;;;2.67;;
61905;SDS011;47863;55.766;37.672;2023-04-01T01:53:43;9.20;;;3.72;;
61905;SDS011;47863;55.766;37.672;2023-04-01T01:56:09;10.30;;;4.70;;
61905;SDS011;47863;55.766;37.672;2023-04-01T01:58:59;5.47;;;2.75;;
61905;SDS011;47863;55.766;37.672;2023-04-01T02:01:33;9.02;;;3.65;;
61905;SDS011;47863;55.766;37.672;2023-04-01T02:04:03;7.32;;;3.65;;
61905;SDS011;47863;55.766;37.672;2023-04-01T02:06:30;7.55;;;3.50;;
61905;SDS011;47863;55.766;37.672;2023-04-01T02:09:06;7.03;;;2.60;;
61905;SDS011;47863;55.766;37.672;2023-04-01T02:19:23;11.95;;;4.72;;
61905;SDS011;47863;55.766;37.672;2023-04-01T02:21:55;5.80;;;2.42;;
61905;SDS011;47863;55.766;37.672;2023-04-01T02:24:24;6.00;;;2.70;;
61905;SDS011;47863;55.766;37.672;2023-04-01T02:26:53;10.30;;;4.35;;
61905;SDS011;47863;55.766;37.672;2023-04-01T02:29:19;9.45;;;3.45;;
61905;SDS011;47863;55.766;37.672;2023-04-01T02:31:46;7.25;;;2.95;;
61905;SDS011;47863;55.766;37.672;2023-04-01T02:34:13;6.10;;;2.78;;
61905;SDS011;47863;55.766;37.672;2023-04-01T02:36:39;10.60;;;4.10;;
61905;SDS011;47863;55.766;37.672;2023-04-01T02:39:05;8.07;;;3.35;;
61905;SDS011;47863;55.766;37.672;2023-04-01T02:41:38;9.85;;;4.00;;
61905;SDS011;47863;55.766;37.672;2023-04-01T02:44:05;7.68;;;3.17;;
61905;SDS011;47863;55.766;37.672;2023-04-01T02:46:31;8.70;;;3.80;;
61905;SDS011;47863;55.766;37.672;2023-04-01T02:48:56;8.95;;;4.05;;
61905;SDS011;47863;55.766;37.672;2023-04-01T02:51:22;9.07;;;4.38;;
61905;SDS011;47863;55.766;37.672;2023-04-01T02:53:47;11.55;;;5.05;;
61905;SDS011;47863;55.766;37.672;2023-04-01T02:56:13;11.70;;;5.57;;
61905;SDS011;47863;55.766;37.672;2023-04-01T02:58:38;8.18;;;4.15;;
61905;SDS011;47863;55.766;37.672;2023-04-01T03:01:04;10.10;;;4.22;;
61905;SDS011;47863;55.766;37.672;2023-04-01T03:03:30;13.13;;;6.20;;
61905;SDS011;47863;55.766;37.672;2023-04-01T03:05:56;7.47;;;3.13;;
61905;SDS011;47863;55.766;37.672;2023-04-01T03:08:23;9.05;;;4.25;;
61905;SDS011;47863;55.766;37.672;2023-04-01T03:10:49;13.15;;;5.68;;
61905;SDS011;47863;55.766;37.672;2023-04-01T03:13:15;12.30;;;5.38;;
61905;SDS011;47863;55.766;37.672;2023-04-01T03:15:40;10.65;;;6.03;;
61905;SDS011;47863;55.766;37.672;2023-04-01T03:18:06;6.72;;;3.50;;
61905;SDS011;47863;55.766;37.672;2023-04-01T03:20:31;7.70;;;3.72;;
61905;SDS011;47863;55.766;37.672;2023-04-01T03:22:57;8.40;;;4.18;;
61905;SDS011;47863;55.766;37.672;2023-04-01T03:25:22;7.35;;;3.42;;
61905;SDS011;47863;55.766;37.672;2023-04-01T03:27:48;10.23;;;3.97;;
61905;SDS011;47863;55.766;37.672;2023-04-01T03:30:14;11.55;;;5.05;;
61905;SDS011;47863;55.766;37.672;2023-04-01T03:32:39;7.65;;;3.03;;
61905;SDS011;47863;55.766;37.672;2023-04-01T03:35:05;6.93;;;3.33;;
61905;SDS011;47863;55.766;37.672;2023-04-01T03:37:31;10.30;;;3.92;;
61905;SDS011;47863;55.766;37.672;2023-04-01T03:39:57;7.50;;;3.75;;
61905;SDS011;47863;55.766;37.672;2023-04-01T03:42:22;8.60;;;3.50;;
61905;SDS011;47863;55.766;37.672;2023-04-01T03:44:48;11.38;;;4.13;;
61905;SDS011;47863;55.766;37.672;2023-04-01T03:47:13;7.93;;;3.80;;
61905;SDS011;47863;55.766;37.672;2023-04-01T03:49:39;5.10;;;2.65;;
61905;SDS011;47863;55.766;37.672;2023-04-01T03:52:07;11.05;;;4.70;;
61905;SDS011;47863;55.766;37.672;2023-04-01T03:54:35;8.45;;;3.63;;
61905;SDS011;47863;55.766;37.672;2023-04-01T03:57:01;9.98;;;4.47;;
61905;SDS011;47863;55.766;37.672;2023-04-01T03:59:27;9.70;;;4.22;;
61905;SDS011;47863;55.766;37.672;2023-04-01T04:01:52;8.32;;;4.22;;
61905;SDS011;47863;55.766;37.672;2023-04-01T04:04:18;7.90;;;3.65;;
61905;SDS011;47863;55.766;37.672;2023-04-01T04:06:43;7.85;;;3.67;;
61905;SDS011;47863;55.766;37.672;2023-04-01T04:09:09;9.23;;;4.00;;
61905;SDS011;47863;55.766;37.672;2023-04-01T04:11:34;10.13;;;4.10;;
61905;SDS011;47863;55.766;37.672;2023-04-01T04:14:00;8.45;;;3.70;;
61905;SDS011;47863;55.766;37.672;2023-04-01T04:16:25;7.57;;;4.28;;
61905;SDS011;47863;55.766;37.672;2023-04-01T04:18:51;5.30;;;2.67;;
61905;SDS011;47863;55.766;37.672;2023-04-01T04:21:17;8.48;;;3.88;;
61905;SDS011;47863;55.766;37.672;2023-04-01T04:23:43;7.85;;;3.67;;
61905;SDS011;47863;55.766;37.672;2023-04-01T04:26:10;8.43;;;4.03;;
61905;SDS011;47863;55.766;37.672;2023-04-01T04:28:37;11.13;;;4.93;;
61905;SDS011;47863;55.766;37.672;2023-04-01T04:31:03;11.90;;;5.07;;
61905;SDS011;47863;55.766;37.672;2023-04-01T04:33:30;8.40;;;3.67;;
61905;SDS011;47863;55.766;37.672;2023-04-01T04:35:56;8.85;;;3.78;;
61905;SDS011;47863;55.766;37.672;2023-04-01T04:38:22;10.00;;;4.90;;
61905;SDS011;47863;55.766;37.672;2023-04-01T04:40:48;10.30;;;4.25;;
61905;SDS011;47863;55.766;37.672;2023-04-01T04:43:14;8.13;;;3.58;;
61905;SDS011;47863;55.766;37.672;2023-04-01T04:45:42;10.40;;;4.13;;
61905;SDS011;47863;55.766;37.672;2023-04-01T04:48:08;11.48;;;5.28;;
61905;SDS011;47863;55.766;37.672;2023-04-01T04:50:35;7.38;;;3.72;;
61905;SDS011;47863;55.766;37.672;2023-04-01T04:53:01;6.63;;;2.92;;
61905;SDS011;47863;55.766;37.672;2023-04-01T04:55:26;15.15;;;6.15;;
61905;SDS011;47863;55.766;37.672;2023-04-01T04:57:52;5.30;;;2.50;;
61905;SDS011;47863;55.766;37.672;2023-04-01T05:00:18;6.03;;;3.03;;
61905;SDS011;47863;55.766;37.672;2023-04-01T05:02:45;6.43;;;2.60;;
61905;SDS011;47863;55.766;37.672;2023-04-01T05:05:10;12.93;;;5.55;;
61905;SDS011;47863;55.766;37.672;2023-04-01T05:07:36;4.88;;;2.45;;
61905;SDS011;47863;55.766;37.672;2023-04-01T05:10:02;9.82;;;4.85;;
61905;SDS011;47863;55.766;37.672;2023-04-01T05:12:28;10.10;;;4.45;;
61905;SDS011;47863;55.766;37.672;2023-04-01T05:14:53;7.78;;;3.55;;
61905;SDS011;47863;55.766;37.672;2023-04-01T05:17:19;8.98;;;3.75;;
61905;SDS011;47863;55.766;37.672;2023-04-01T05:19:44;8.50;;;3.63;;
61905;SDS011;47863;55.766;37.672;2023-04-01T05:22:10;8.63;;;3.97;;
61905;SDS011;47863;55.766;37.672;2023-04-01T05:24:36;6.40;;;3.45;;
61905;SDS011;47863;55.766;37.672;2023-04-01T05:27:01;6.55;;;2.88;;
61905;SDS011;47863;55.766;37.672;2023-04-01T05:29:27;12.13;;;5.05;;
61905;SDS011;47863;55.766;37.672;2023-04-01T05:31:52;8.55;;;4.50;;
61905;SDS011;47863;55.766;37.672;2023-04-01T05:34:18;14.00;;;5.70;;
61905;SDS011;47863;55.766;37.672;2023-04-01T05:36:44;8.15;;;4.22;;
61905;SDS011;47863;55.766;37.672;2023-04-01T05:39:09;11.15;;;4.40;;
61905;SDS011;47863;55.766;37.672;2023-04-01T05:41:35;5.00;;;2.85;;
61905;SDS011;47863;55.766;37.672;2023-04-01T05:44:02;7.55;;;3.67;;
61905;SDS011;47863;55.766;37.672;2023-04-01T05:46:28;7.60;;;3.28;;
61905;SDS011;47863;55.766;37.672;2023-04-01T05:48:54;5.63;;;2.58;;
61905;SDS011;47863;55.766;37.672;2023-04-01T05:51:20;7.88;;;3.92;;
61905;SDS011;47863;55.766;37.672;2023-04-01T05:53:45;11.40;;;5.85;;
61905;SDS011;47863;55.766;37.672;2023-04-01T05:56:11;7.53;;;3.67;;
61905;SDS011;47863;55.766;37.672;2023-04-01T05:58:37;11.23;;;4.40;;
61905;SDS011;47863;55.766;37.672;2023-04-01T06:01:07;7.93;;;3.88;;
61905;SDS011;47863;55.766;37.672;2023-04-01T06:06:01;4.90;;;2.53;;
61905;SDS011;47863;55.766;37.672;2023-04-01T06:08:27;9.15;;;4.03;;
61905;SDS011;47863;55.766;37.672;2023-04-01T06:13:47;7.40;;;3.45;;
61905;SDS011;47863;55.766;37.672;2023-04-01T06:19:26;6.35;;;3.15;;
61905;SDS011;47863;55.766;37.672;2023-04-01T06:38:55;7.03;;;3.75;;
61905;SDS011;47863;55.766;37.672;2023-04-01T06:47:23;7.88;;;3.97;;
61905;SDS011;47863;55.766;37.672;2023-04-01T06:58:20;6.63;;;3.15;;
61905;SDS011;47863;55.766;37.672;2023-04-01T07:00:50;12.00;;;5.50;;
61905;SDS011;47863;55.766;37.672;2023-04-01T07:03:29;10.50;;;5.45;;
61905;SDS011;47863;55.766;37.672;2023-04-01T07:06:00;7.18;;;3.65;;
61905;SDS011;47863;55.766;37.672;2023-04-01T07:08:29;8.57;;;5.13;;
61905;SDS011;47863;55.766;37.672;2023-04-01T07:10:58;9.35;;;5.55;;
61905;SDS011;47863;55.766;37.672;2023-04-01T07:13:41;9.55;;;5.22;;
61905;SDS011;47863;55.766;37.672;2023-04-01T07:19:20;7.53;;;3.85;;
61905;SDS011;47863;55.766;37.672;2023-04-01T07:24:25;8.23;;;4.53;;
61905;SDS011;47863;55.766;37.672;2023-04-01T07:26:55;10.93;;;4.80;;
61905;SDS011;47863;55.766;37.672;2023-04-01T07:29:22;13.65;;;6.70;;
61905;SDS011;47863;55.766;37.672;2023-04-01T07:32:33;8.30;;;4.22;;
61905;SDS011;47863;55.766;37.672;2023-04-01T07:37:31;7.63;;;4.25;;
61905;SDS011;47863;55.766;37.672;2023-04-01T07:40:21;9.98;;;5.13;;
61905;SDS011;47863;55.766;37.672;2023-04-01T07:45:36;8.52;;;4.55;;
61905;SDS011;47863;55.766;37.672;2023-04-01T07:53:30;8.25;;;5.18;;
61905;SDS011;47863;55.766;37.672;2023-04-01T07:56:30;11.05;;;6.40;;
61905;SDS011;47863;55.766;37.672;2023-04-01T08:01:53;9.50;;;5.38;;
61905;SDS011;47863;55.766;37.672;2023-04-01T08:07:12;8.30;;;4.30;;
61905;SDS011;47863;55.766;37.672;2023-04-01T08:17:56;12.65;;;7.47;;
61905;SDS011;47863;55.766;37.672;2023-04-01T08:23:17;13.57;;;6.93;;
61905;SDS011;47863;55.766;37.672;2023-04-01T08:25:46;9.43;;;5.35;;
61905;SDS011;47863;55.766;37.672;2023-04-01T08:28:27;10.10;;;5.85;;
61905;SDS011;47863;55.766;37.672;2023-04-01T08:31:02;9.27;;;6.03;;
61905;SDS011;47863;55.766;37.672;2023-04-01T08:33:34;9.43;;;5.93;;
61905;SDS011;47863;55.766;37.672;2023-04-01T08:36:03;9.38;;;5.88;;
61905;SDS011;47863;55.766;37.672;2023-04-01T08:38:43;8.10;;;5.05;;
61905;SDS011;47863;55.766;37.672;2023-04-01T08:41:28;10.60;;;5.60;;
61905;SDS011;47863;55.766;37.672;2023-04-01T08:50:19;10.68;;;5.13;;
61905;SDS011;47863;55.766;37.672;2023-04-01T09:04:05;9.35;;;5.50;;
61905;SDS011;47863;55.766;37.672;2023-04-01T09:35:21;7.88;;;4.68;;
61905;SDS011;47863;55.766;37.672;2023-04-01T09:37:51;10.50;;;6.57;;
61905;SDS011;47863;55.766;37.672;2023-04-01T10:14:25;10.68;;;5.78;;
61905;SDS011;47863;55.766;37.672;2023-04-01T10:23:15;7.60;;;4.88;;
61905;SDS011;47863;55.766;37.672;2023-04-01T10:26:07;8.32;;;5.18;;
61905;SDS011;47863;55.766;37.672;2023-04-01T10:41:14;7.53;;;4.22;;
61905;SDS011;47863;55.766;37.672;2023-04-01T10:55:10;5.18;;;3.10;;
61905;SDS011;47863;55.766;37.672;2023-04-01T10:58:12;5.63;;;3.50;;
61905;SDS011;47863;55.766;37.672;2023-04-01T11:01:13;8.00;;;4.13;;
61905;SDS011;47863;55.766;37.672;2023-04-01T11:12:30;5.63;;;3.33;;
61905;SDS011;47863;55.766;37.672;2023-04-01T11:17:49;8.68;;;4.63;;
61905;SDS011;47863;55.766;37.672;2023-04-01T11:20:41;5.47;;;3.20;;
61905;SDS011;47863;55.766;37.672;2023-04-01T11:54:39;7.25;;;3.30;;
61905;SDS011;47863;55.766;37.672;2023-04-01T12:08:13;5.43;;;2.47;;
61905;SDS011;47863;55.766;37.672;2023-04-01T12:11:05;5.00;;;2.75;;
61905;SDS011;47863;55.766;37.672;2023-04-01T12:13:37;4.90;;;2.95;;
61905;SDS011;47863;55.766;37.672;2023-04-01T12:18:55;7.80;;;3.17;;
61905;SDS011;47863;55.766;37.672;2023-04-01T12:24:31;4.68;;;2.92;;
61905;SDS011;47863;55.766;37.672;2023-04-01T12:27:26;7.18;;;3.47;;
61905;SDS011;47863;55.766;37.672;2023-04-01T12:41:51;6.70;;;2.63;;
61905;SDS011;47863;55.766;37.672;2023-04-01T12:55:33;6.60;;;3.00;;
61905;SDS011;47863;55.766;37.672;2023-04-01T12:58:06;9.85;;;3.58;;
61905;SDS011;47863;55.766;37.672;2023-04-01T13:00:40;6.38;;;3.15;;
61905;SDS011;47863;55.766;37.672;2023-04-01T13:22:24;8.68;;;3.63;;
61905;SDS011;47863;55.766;37.672;2023-04-01T13:25:06;9.32;;;4.03;;
61905;SDS011;47863;55.766;37.672;2023-04-01T13:27:45;9.27;;;4.30;;
61905;SDS011;47863;55.766;37.672;2023-04-01T13:30:26;16.38;;;5.53;;
61905;SDS011;47863;55.766;37.672;2023-04-01T13:33:17;8.80;;;4.18;;
61905;SDS011;47863;55.766;37.672;2023-04-01T13:38:52;7.50;;;2.97;;
61905;SDS011;47863;55.766;37.672;2023-04-01T13:44:45;6.80;;;3.75;;
61905;SDS011;47863;55.766;37.672;2023-04-01T13:50:23;7.63;;;3.65;;
61905;SDS011;47863;55.766;37.672;2023-04-01T13:55:53;11.27;;;4.32;;
61905;SDS011;47863;55.766;37.672;2023-04-01T14:17:17;6.10;;;3.00;;
61905;SDS011;47863;55.766;37.672;2023-04-01T14:31:18;6.97;;;3.70;;
61905;SDS011;47863;55.766;37.672;2023-04-01T14:39:15;8.05;;;3.92;;
61905;SDS011;47863;55.766;37.672;2023-04-01T14:47:42;9.68;;;4.57;;
61905;SDS011;47863;55.766;37.672;2023-04-01T14:50:45;7.55;;;3.28;;
61905;SDS011;47863;55.766;37.672;2023-04-01T14:55:52;11.35;;;4.28;;
61905;SDS011;47863;55.766;37.672;2023-04-01T14:58:23;8.93;;;4.30;;
61905;SDS011;47863;55.766;37.672;2023-04-01T15:06:30;9.27;;;4.00;;
61905;SDS011;47863;55.766;37.672;2023-04-01T15:09:15;8.73;;;5.32;;
61905;SDS011;47863;55.766;37.672;2023-04-01T15:30:37;7.50;;;4.10;;
61905;SDS011;47863;55.766;37.672;2023-04-01T15:53:05;10.27;;;5.35;;
61905;SDS011;47863;55.766;37.672;2023-04-01T15:55:39;11.38;;;5.82;;
61905;SDS011;47863;55.766;37.672;2023-04-01T15:58:38;9.40;;;5.68;;
61905;SDS011;47863;55.766;37.672;2023-04-01T16:03:46;9.82;;;5.10;;
61905;SDS011;47863;55.766;37.672;2023-04-01T16:08:51;10.85;;;6.32;;
61905;SDS011;47863;55.766;37.672;2023-04-01T16:19:46;15.30;;;7.45;;
61905;SDS011;47863;55.766;37.672;2023-04-01T16:33:21;14.90;;;7.10;;
61905;SDS011;47863;55.766;37.672;2023-04-01T16:35:58;14.77;;;7.43;;
61905;SDS011;47863;55.766;37.672;2023-04-01T16:38:33;13.25;;;6.78;;
61905;SDS011;47863;55.766;37.672;2023-04-01T16:43:53;10.73;;;5.85;;
61905;SDS011;47863;55.766;37.672;2023-04-01T16:49:13;10.05;;;5.57;;
61905;SDS011;47863;55.766;37.672;2023-04-01T16:59:53;11.38;;;5.75;;
61905;SDS011;47863;55.766;37.672;2023-04-01T17:02:28;13.23;;;6.50;;
61905;SDS011;47863;55.766;37.672;2023-04-01T17:05:04;10.98;;;5.50;;
61905;SDS011;47863;55.766;37.672;2023-04-01T17:07:44;11.13;;;5.50;;
61905;SDS011;47863;55.766;37.672;2023-04-01T17:13:13;14.63;;;5.78;;
61905;SDS011;47863;55.766;37.672;2023-04-01T17:24:00;15.82;;;7.28;;
61905;SDS011;47863;55.766;37.672;2023-04-01T17:26:43;12.68;;;5.88;;
61905;SDS011;47863;55.766;37.672;2023-04-01T17:37:55;11.10;;;5.72;;
61905;SDS011;47863;55.766;37.672;2023-04-01T17:46:02;10.05;;;5.32;;
61905;SDS011;47863;55.766;37.672;2023-04-01T17:49:11;11.02;;;5.63;;
61905;SDS011;47863;55.766;37.672;2023-04-01T17:54:33;10.85;;;5.00;;
61905;SDS011;47863;55.766;37.672;2023-04-01T17:59:56;9.45;;;5.25;;
61905;SDS011;47863;55.766;37.672;2023-04-01T18:08:58;11.70;;;5.95;;
61905;SDS011;47863;55.766;37.672;2023-04-01T18:14:25;9.63;;;5.43;;
61905;SDS011;47863;55.766;37.672;2023-04-01T18:17:23;10.73;;;5.85;;
61905;SDS011;47863;55.766;37.672;2023-04-01T18:23:38;8.32;;;4.90;;
61905;SDS011;47863;55.766;37.672;2023-04-01T18:26:02;14.05;;;6.60;;
61905;SDS011;47863;55.766;37.672;2023-04-01T18:28:47;7.50;;;4.10;;
61905;SDS011;47863;55.766;37.672;2023-04-01T18:31:40;10.65;;;5.55;;
61905;SDS011;47863;55.766;37.672;2023-04-01T18:36:46;11.85;;;6.05;;
61905;SDS011;47863;55.766;37.672;2023-04-01T18:44:49;10.93;;;6.45;;
61905;SDS011;47863;55.766;37.672;2023-04-01T18:47:27;15.50;;;7.68;;
61905;SDS011;47863;55.766;37.672;2023-04-01T18:55:40;14.20;;;7.90;;
61905;SDS011;47863;55.766;37.672;2023-04-01T19:01:26;12.68;;;6.75;;
61905;SDS011;47863;55.766;37.672;2023-04-01T19:04:12;11.38;;;5.63;;
61905;SDS011;47863;55.766;37.672;2023-04-01T19:06:56;12.30;;;7.03;;
61905;SDS011;47863;55.766;37.672;2023-04-01T19:09:27;10.80;;;5.03;;
61905;SDS011;47863;55.766;37.672;2023-04-01T19:20:25;13.73;;;6.88;;
61905;SDS011;47863;55.766;37.672;2023-04-01T19:26:00;16.23;;;7.60;;
61905;SDS011;47863;55.766;37.672;2023-04-01T19:31:36;14.35;;;6.82;;
61905;SDS011;47863;55.766;37.672;2023-04-01T19:34:25;16.05;;;8.38;;
61905;SDS011;47863;55.766;37.672;2023-04-01T19:38:04;13.90;;;7.07;;
61905;SDS011;47863;55.766;37.672;2023-04-01T19:46:10;17.27;;;8.75;;
61905;SDS011;47863;55.766;37.672;2023-04-01T19:53:37;12.15;;;6.85;;
61905;SDS011;47863;55.766;37.672;2023-04-01T19:56:15;11.43;;;6.43;;
61905;SDS011;47863;55.766;37.672;2023-04-01T19:58:45;15.60;;;6.95;;
61905;SDS011;47863;55.766;37.672;2023-04-01T20:01:34;13.93;;;6.80;;
61905;SDS011;47863;55.766;37.672;2023-04-01T20:04:24;11.00;;;5.57;;
61905;SDS011;47863;55.766;37.672;2023-04-01T20:07:07;11.70;;;5.63;;
61905;SDS011;47863;55.766;37.672;2023-04-01T20:17:54;12.52;;;6.07;;
61905;SDS011;47863;55.766;37.672;2023-04-01T20:20:25;11.52;;;5.43;;
61905;SDS011;47863;55.766;37.672;2023-04-01T20:23:03;13.10;;;5.90;;
61905;SDS011;47863;55.766;37.672;2023-04-01T20:25:32;10.85;;;4.50;;
61905;SDS011;47863;55.766;37.672;2023-04-01T20:45:10;19.98;;;9.27;;
61905;SDS011;47863;55.766;37.672;2023-04-01T20:50:53;13.60;;;6.97;;
61905;SDS011;47863;55.766;37.672;2023-04-01T21:13:11;16.63;;;7.07;;
61905;SDS011;47863;55.766;37.672;2023-04-01T21:31:26;13.93;;;6.43;;
61905;SDS011;47863;55.766;37.672;2023-04-01T21:42:05;13.30;;;6.97;;
61905;SDS011;47863;55.766;37.672;2023-04-01T21:45:03;19.60;;;7.90;;
61905;SDS011;47863;55.766;37.672;2023-04-01T21:53:53;14.20;;;6.63;;
61905;SDS011;47863;55.766;37.672;2023-04-01T22:05:11;17.63;;;8.65;;
61905;SDS011;47863;55.766;37.672;2023-04-01T22:07:55;12.43;;;5.70;;
61905;SDS011;47863;55.766;37.672;2023-04-01T22:13:49;14.90;;;7.28;;
61905;SDS011;47863;55.766;37.672;2023-04-01T22:16:31;11.25;;;5.70;;
61905;SDS011;47863;55.766;37.672;2023-04-01T22:21:46;19.15;;;9.10;;
61905;SDS011;47863;55.766;37.672;2023-04-01T22:35:16;12.63;;;5.05;;
61905;SDS011;47863;55.766;37.672;2023-04-01T22:41:04;14.50;;;7.03;;
61905;SDS011;47863;55.766;37.672;2023-04-01T22:43:41;15.38;;;8.10;;
61905;SDS011;47863;55.766;37.672;2023-04-01T22:49:03;17.27;;;7.85;;
61905;SDS011;47863;55.766;37.672;2023-04-01T22:57:01;11.35;;;5.95;;
61905;SDS011;47863;55.766;37.672;2023-04-01T23:03:11;13.30;;;6.20;;
61905;SDS011;47863;55.766;37.672;2023-04-01T23:05:58;12.05;;;6.40;;
61905;SDS011;47863;55.766;37.672;2023-04-01T23:11:16;13.60;;;6.45;;
61905;SDS011;47863;55.766;37.672;2023-04-01T23:13:53;11.57;;;5.25;;
61905;SDS011;47863;55.766;37.672;2023-04-01T23:16:34;14.88;;;6.30;;
61905;SDS011;47863;55.766;37.672;2023-04-01T23:19:09;10.73;;;5.72;;
61905;SDS011;47863;55.766;37.672;2023-04-01T23:25:18;10.13;;;5.30;;
61905;SDS011;47863;55.766;37.672;2023-04-01T23:28:03;15.75;;;6.70;;
61905;SDS011;47863;55.766;37.672;2023-04-01T23:33:19;15.25;;;7.80;;
61905;SDS011;47863;55.766;37.672;2023-04-01T23:35:49;12.80;;;5.88;;
61905;SDS011;47863;55.766;37.672;2023-04-01T23:38:33;14.20;;;6.70;;
61905;SDS011;47863;55.766;37.672;2023-04-01T23:41:02;16.77;;;8.88;;
61905;SDS011;47863;55.766;37.672;2023-04-01T23:43:36;10.65;;;6.10;;
61905;SDS011;47863;55.766;37.672;2023-04-01T23:46:05;13.68;;;6.88;;
61905;SDS011;47863;55.766;37.672;2023-04-01T23:48:36;11.18;;;5.22;;
61905;SDS011;47863;55.766;37.672;2023-04-01T23:51:18;15.27;;;7.07;;
61905;SDS011;47863;55.766;37.672;2023-04-01T23:53:47;18.05;;;8.38;;
61905;SDS011;47863;55.766;37.672;2023-04-01T23:56:31;13.50;;;6.70;;
61905;SDS011;47863;55.766;37.672;2023-04-01T23:58:59;13.55;;;6.80;;
